1CD2 weather

Tonga Airport
Platteville, Colorado, United States

Public forecast

Using degrees Fahrenheit for public forecast. Weather courtesy of forecast.io.

METAR (pilot weather report)

Closest report is Erie Municipal Airport, 15.0 nm (27.8 km) SW. Retrieved 2019/08/22 09:30 UTC (0 seconds ago):

KEIK 220930Z AUTO 29003KT 10SM 16/15 A3015 RMK AO2 T01610146

TAF (pilot weather forecast)

Closest forecast is Denver International Airport, 19.2 nm (35.5 km) SSE. Retrieved 2019/08/22 06:39 UTC (2 hours ago):

TAF KDEN 220536Z 2206/2312 35009KT P6SM FEW120 BKN220 FM220700 21010KT P6SM FEW120 SCT220 FM221400 VRB05KT P6SM FEW220 FM221700 16010KT P6SM SCT100 FM222000 10008KT P6SM SCT080 BKN200 PROB30 2222/2302 VRB20G35KT -TSRA BKN060CB FM230300 20009KT P6SM SCT100 BKN220